createdAt,value
2022-12-05T18:13:40.772Z,3.08
2022-12-05T18:16:26.427Z,3.15
2022-12-05T18:19:11.915Z,3.00
2022-12-05T18:21:57.281Z,2.60
2022-12-05T18:24:42.801Z,3.13
2022-12-05T18:27:28.271Z,3.22
2022-12-05T18:30:14.041Z,2.88
2022-12-05T18:32:59.611Z,3.42
2022-12-05T18:35:45.278Z,2.97
2022-12-05T18:38:30.616Z,2.63
2022-12-05T18:41:16.005Z,2.80
2022-12-05T18:44:01.755Z,3.20
2022-12-05T18:46:47.357Z,3.47
2022-12-05T18:49:33.147Z,3.17
2022-12-05T18:52:18.994Z,3.25
2022-12-05T18:55:18.396Z,3.73
2022-12-05T18:58:06.596Z,3.15
2022-12-05T19:00:51.845Z,2.83
2022-12-05T19:03:38.820Z,3.05
2022-12-05T19:06:27.242Z,3.00
2022-12-05T19:09:15.322Z,3.22
2022-12-05T19:12:01.459Z,3.22
2022-12-05T19:14:47.403Z,3.10
2022-12-05T19:17:34.440Z,3.63
2022-12-05T19:20:20.062Z,3.60
2022-12-05T19:23:05.386Z,3.27
2022-12-05T19:25:55.769Z,3.40
2022-12-05T19:28:41.419Z,2.60
2022-12-05T19:31:28.520Z,3.72
2022-12-05T19:34:14.231Z,3.10
2022-12-05T19:36:59.566Z,3.70
2022-12-05T19:39:45.647Z,3.03
2022-12-05T19:42:31.772Z,3.88
2022-12-05T19:45:18.219Z,4.13
2022-12-05T19:48:03.911Z,3.28
2022-12-05T19:50:57.417Z,4.88
2022-12-05T19:53:43.931Z,3.85
2022-12-05T19:56:30.731Z,3.28
2022-12-05T19:59:17.168Z,4.25
2022-12-05T20:02:03.022Z,4.25
2022-12-05T20:04:48.388Z,3.80
2022-12-05T20:07:34.106Z,3.75
2022-12-05T20:10:20.493Z,4.13
2022-12-05T20:13:24.089Z,3.83
2022-12-05T20:16:12.853Z,3.63
2022-12-05T20:18:59.144Z,4.27
2022-12-05T20:21:44.639Z,3.20
2022-12-05T20:24:30.070Z,4.07
2022-12-05T20:27:15.478Z,3.17
2022-12-05T20:30:01.259Z,3.30
2022-12-05T20:32:46.911Z,3.40
2022-12-05T20:35:36.123Z,3.08
2022-12-05T20:38:21.740Z,3.45
2022-12-05T20:41:10.987Z,3.70
2022-12-05T20:43:58.901Z,3.58
2022-12-05T20:46:44.614Z,3.08
2022-12-05T20:49:29.928Z,3.20
2022-12-05T20:52:15.224Z,3.70
2022-12-05T20:55:00.652Z,3.20
2022-12-05T20:57:46.203Z,3.55
2022-12-05T21:00:31.782Z,4.68
2022-12-05T21:03:17.593Z,3.70
2022-12-05T21:06:11.317Z,3.63
2022-12-05T21:08:56.980Z,2.97
2022-12-05T21:11:42.898Z,4.88
2022-12-05T21:14:28.569Z,3.67
2022-12-05T21:17:13.918Z,3.63
2022-12-05T21:19:59.384Z,2.80
2022-12-05T21:22:45.027Z,3.47
2022-12-05T21:25:31.900Z,2.90
2022-12-05T21:28:17.147Z,3.22
2022-12-05T21:31:14.088Z,2.80
2022-12-05T21:34:02.688Z,3.13
2022-12-05T21:36:48.907Z,3.20
2022-12-05T21:39:34.262Z,2.80
2022-12-05T21:42:19.883Z,2.95
2022-12-05T21:45:05.701Z,2.50
2022-12-05T21:47:51.163Z,2.57
2022-12-05T21:50:42.384Z,2.60
2022-12-05T21:53:27.675Z,2.67
2022-12-05T21:56:15.955Z,2.65
2022-12-05T21:59:01.250Z,2.95
2022-12-05T22:01:46.946Z,2.53
2022-12-05T22:04:32.331Z,3.53
2022-12-05T22:07:17.875Z,2.90
2022-12-05T22:10:03.783Z,2.78
2022-12-05T22:12:49.587Z,2.55
2022-12-05T22:15:34.857Z,3.38
2022-12-05T22:18:20.419Z,3.03
2022-12-05T22:21:13.862Z,2.35
2022-12-05T22:23:59.259Z,2.55
2022-12-05T22:26:44.837Z,2.47
2022-12-05T22:29:30.395Z,2.60
2022-12-05T22:32:16.015Z,3.15
2022-12-05T22:35:04.039Z,2.20
2022-12-05T22:37:50.034Z,2.40
2022-12-05T22:40:38.171Z,2.42
2022-12-05T22:43:24.956Z,2.10
2022-12-05T22:46:17.734Z,2.10
2022-12-05T22:49:04.578Z,1.80
2022-12-05T22:51:49.833Z,2.00
2022-12-05T22:54:35.545Z,2.13
2022-12-05T22:57:20.876Z,2.00
2022-12-05T23:00:07.106Z,1.85
2022-12-05T23:02:52.897Z,2.25
2022-12-05T23:05:40.553Z,1.65
2022-12-05T23:08:25.949Z,2.47
2022-12-05T23:11:12.042Z,2.30
2022-12-05T23:14:01.942Z,2.28
2022-12-05T23:16:48.055Z,1.80
2022-12-05T23:19:33.405Z,1.98
2022-12-05T23:22:18.690Z,2.13
2022-12-05T23:25:04.551Z,2.05
2022-12-05T23:27:49.915Z,1.65
2022-12-05T23:30:35.645Z,2.10
2022-12-05T23:33:21.029Z,2.30
2022-12-05T23:36:07.781Z,2.20
2022-12-05T23:38:53.813Z,2.13
2022-12-05T23:41:39.375Z,2.00
2022-12-05T23:44:24.726Z,1.70
2022-12-05T23:47:10.220Z,1.95
2022-12-05T23:49:55.646Z,2.00
2022-12-05T23:52:41.293Z,1.73
2022-12-05T23:55:26.935Z,1.70
2022-12-05T23:58:12.480Z,1.70
